sensor_id;sensor_type;location;lat;lon;timestamp;temperature;humidity
8332;DHT22;4203;48.144;14.118;2023-04-03T00:02:15;4.30;99.90
8332;DHT22;4203;48.144;14.118;2023-04-03T00:04:42;4.30;99.90
8332;DHT22;4203;48.144;14.118;2023-04-03T00:07:09;4.30;99.90
8332;DHT22;4203;48.144;14.118;2023-04-03T00:09:39;4.30;99.90
8332;DHT22;4203;48.144;14.118;2023-04-03T00:12:06;4.30;99.90
8332;DHT22;4203;48.144;14.118;2023-04-03T00:14:33;4.30;99.90
8332;DHT22;4203;48.144;14.118;2023-04-03T00:17:00;4.30;99.90
8332;DHT22;4203;48.144;14.118;2023-04-03T00:19:27;4.30;99.90
8332;DHT22;4203;48.144;14.118;2023-04-03T00:21:55;4.30;99.90
8332;DHT22;4203;48.144;14.118;2023-04-03T00:24:22;4.30;99.90
8332;DHT22;4203;48.144;14.118;2023-04-03T00:26:50;4.30;99.90
8332;DHT22;4203;48.144;14.118;2023-04-03T00:29:17;4.30;99.90
8332;DHT22;4203;48.144;14.118;2023-04-03T00:31:45;4.20;99.90
8332;DHT22;4203;48.144;14.118;2023-04-03T00:34:12;4.20;99.90
8332;DHT22;4203;48.144;14.118;2023-04-03T00:36:39;4.20;99.90
8332;DHT22;4203;48.144;14.118;2023-04-03T00:39:06;4.20;99.90
8332;DHT22;4203;48.144;14.118;2023-04-03T00:41:33;4.20;99.90
8332;DHT22;4203;48.144;14.118;2023-04-03T00:44:21;4.10;99.90
8332;DHT22;4203;48.144;14.118;2023-04-03T00:46:48;4.20;99.90
8332;DHT22;4203;48.144;14.118;2023-04-03T00:49:15;4.10;99.90
8332;DHT22;4203;48.144;14.118;2023-04-03T00:51:42;4.20;99.90
8332;DHT22;4203;48.144;14.118;2023-04-03T00:54:10;4.20;99.90
8332;DHT22;4203;48.144;14.118;2023-04-03T00:56:37;4.10;99.90
8332;DHT22;4203;48.144;14.118;2023-04-03T00:59:08;4.10;99.90
8332;DHT22;4203;48.144;14.118;2023-04-03T01:01:38;4.10;99.90
8332;DHT22;4203;48.144;14.118;2023-04-03T01:04:05;4.10;99.90
8332;DHT22;4203;48.144;14.118;2023-04-03T01:06:35;4.10;99.90
8332;DHT22;4203;48.144;14.118;2023-04-03T01:09:04;4.10;99.90
8332;DHT22;4203;48.144;14.118;2023-04-03T01:11:31;4.00;99.90
8332;DHT22;4203;48.144;14.118;2023-04-03T01:13:59;4.00;99.90
8332;DHT22;4203;48.144;14.118;2023-04-03T01:16:27;4.00;99.90
8332;DHT22;4203;48.144;14.118;2023-04-03T01:18:59;3.90;99.90
8332;DHT22;4203;48.144;14.118;2023-04-03T01:21:52;4.00;99.90
8332;DHT22;4203;48.144;14.118;2023-04-03T01:24:33;4.00;99.90
8332;DHT22;4203;48.144;14.118;2023-04-03T01:27:04;3.90;99.90
8332;DHT22;4203;48.144;14.118;2023-04-03T01:29:31;3.80;99.90
8332;DHT22;4203;48.144;14.118;2023-04-03T01:32:01;3.90;99.90
8332;DHT22;4203;48.144;14.118;2023-04-03T01:34:29;3.90;99.90
8332;DHT22;4203;48.144;14.118;2023-04-03T01:36:57;3.90;99.90
8332;DHT22;4203;48.144;14.118;2023-04-03T01:39:24;3.90;99.90
8332;DHT22;4203;48.144;14.118;2023-04-03T01:41:51;3.90;99.90
8332;DHT22;4203;48.144;14.118;2023-04-03T01:44:19;3.90;99.90
8332;DHT22;4203;48.144;14.118;2023-04-03T01:46:46;3.90;99.90
8332;DHT22;4203;48.144;14.118;2023-04-03T01:49:14;3.90;99.90
8332;DHT22;4203;48.144;14.118;2023-04-03T01:51:41;3.90;99.90
8332;DHT22;4203;48.144;14.118;2023-04-03T01:54:09;3.90;99.90
8332;DHT22;4203;48.144;14.118;2023-04-03T01:56:36;3.90;99.90
8332;DHT22;4203;48.144;14.118;2023-04-03T01:59:04;3.90;99.90
8332;DHT22;4203;48.144;14.118;2023-04-03T02:01:31;3.90;99.90
8332;DHT22;4203;48.144;14.118;2023-04-03T02:03:58;3.90;99.90
8332;DHT22;4203;48.144;14.118;2023-04-03T02:06:27;3.80;99.90
8332;DHT22;4203;48.144;14.118;2023-04-03T02:08:54;3.80;99.90
8332;DHT22;4203;48.144;14.118;2023-04-03T02:11:21;3.80;99.90
8332;DHT22;4203;48.144;14.118;2023-04-03T02:13:48;3.80;99.90
8332;DHT22;4203;48.144;14.118;2023-04-03T02:16:16;3.80;99.90
8332;DHT22;4203;48.144;14.118;2023-04-03T02:18:43;3.80;99.90
8332;DHT22;4203;48.144;14.118;2023-04-03T02:21:10;3.80;99.90
8332;DHT22;4203;48.144;14.118;2023-04-03T02:23:39;3.80;99.90
8332;DHT22;4203;48.144;14.118;2023-04-03T02:26:08;3.80;99.90
8332;DHT22;4203;48.144;14.118;2023-04-03T02:28:35;3.80;99.90
8332;DHT22;4203;48.144;14.118;2023-04-03T02:31:03;3.80;99.90
8332;DHT22;4203;48.144;14.118;2023-04-03T02:33:30;3.80;99.90
8332;DHT22;4203;48.144;14.118;2023-04-03T02:35:59;3.80;99.90
8332;DHT22;4203;48.144;14.118;2023-04-03T02:38:26;3.70;99.90
8332;DHT22;4203;48.144;14.118;2023-04-03T02:41:00;3.70;99.90
8332;DHT22;4203;48.144;14.118;2023-04-03T02:43:27;3.60;99.90
8332;DHT22;4203;48.144;14.118;2023-04-03T02:45:54;3.60;99.90
8332;DHT22;4203;48.144;14.118;2023-04-03T02:48:22;3.60;99.90
8332;DHT22;4203;48.144;14.118;2023-04-03T02:50:49;3.60;99.90
8332;DHT22;4203;48.144;14.118;2023-04-03T02:53:17;3.50;99.90
8332;DHT22;4203;48.144;14.118;2023-04-03T02:55:44;3.50;99.90
8332;DHT22;4203;48.144;14.118;2023-04-03T02:58:13;3.40;99.90
8332;DHT22;4203;48.144;14.118;2023-04-03T03:00:40;3.40;99.90
8332;DHT22;4203;48.144;14.118;2023-04-03T03:03:07;3.40;99.90
8332;DHT22;4203;48.144;14.118;2023-04-03T03:05:34;3.40;99.90
8332;DHT22;4203;48.144;14.118;2023-04-03T03:08:02;3.40;99.90
8332;DHT22;4203;48.144;14.118;2023-04-03T03:10:29;3.50;99.90
8332;DHT22;4203;48.144;14.118;2023-04-03T03:12:56;3.50;99.90
8332;DHT22;4203;48.144;14.118;2023-04-03T03:15:25;3.50;99.90
8332;DHT22;4203;48.144;14.118;2023-04-03T03:17:52;3.50;99.90
8332;DHT22;4203;48.144;14.118;2023-04-03T03:20:19;3.50;99.90
8332;DHT22;4203;48.144;14.118;2023-04-03T03:22:46;3.50;99.90
8332;DHT22;4203;48.144;14.118;2023-04-03T03:25:14;3.50;99.90
8332;DHT22;4203;48.144;14.118;2023-04-03T03:27:41;3.50;99.90
8332;DHT22;4203;48.144;14.118;2023-04-03T03:30:08;3.50;99.90
8332;DHT22;4203;48.144;14.118;2023-04-03T03:32:37;3.50;99.90
8332;DHT22;4203;48.144;14.118;2023-04-03T03:35:05;3.50;99.90
8332;DHT22;4203;48.144;14.118;2023-04-03T03:37:32;3.50;99.90
8332;DHT22;4203;48.144;14.118;2023-04-03T03:39:59;3.50;99.90
8332;DHT22;4203;48.144;14.118;2023-04-03T03:42:26;3.50;99.90
8332;DHT22;4203;48.144;14.118;2023-04-03T03:44:53;3.50;99.90
8332;DHT22;4203;48.144;14.118;2023-04-03T03:47:21;3.40;99.90
8332;DHT22;4203;48.144;14.118;2023-04-03T03:49:49;3.40;99.90
8332;DHT22;4203;48.144;14.118;2023-04-03T03:52:16;3.40;99.90
8332;DHT22;4203;48.144;14.118;2023-04-03T03:54:43;3.40;99.90
8332;DHT22;4203;48.144;14.118;2023-04-03T03:57:10;3.40;99.90
8332;DHT22;4203;48.144;14.118;2023-04-03T03:59:37;3.40;99.90
8332;DHT22;4203;48.144;14.118;2023-04-03T04:02:06;3.40;99.90
8332;DHT22;4203;48.144;14.118;2023-04-03T04:04:33;3.40;99.90
8332;DHT22;4203;48.144;14.118;2023-04-03T04:07:02;3.40;99.90
8332;DHT22;4203;48.144;14.118;2023-04-03T04:09:30;3.40;99.90
8332;DHT22;4203;48.144;14.118;2023-04-03T04:11:57;3.40;99.90
8332;DHT22;4203;48.144;14.118;2023-04-03T04:14:24;3.40;99.90
8332;DHT22;4203;48.144;14.118;2023-04-03T04:16:52;3.40;99.90
8332;DHT22;4203;48.144;14.118;2023-04-03T04:19:19;3.40;99.90
8332;DHT22;4203;48.144;14.118;2023-04-03T04:21:46;3.40;99.90
8332;DHT22;4203;48.144;14.118;2023-04-03T04:24:15;3.40;99.90
8332;DHT22;4203;48.144;14.118;2023-04-03T04:26:42;3.40;99.90
8332;DHT22;4203;48.144;14.118;2023-04-03T04:29:09;3.30;99.90
8332;DHT22;4203;48.144;14.118;2023-04-03T04:31:36;3.40;99.90
8332;DHT22;4203;48.144;14.118;2023-04-03T04:34:03;3.30;99.90
8332;DHT22;4203;48.144;14.118;2023-04-03T04:36:31;3.30;99.90
8332;DHT22;4203;48.144;14.118;2023-04-03T04:38:58;3.30;99.90
8332;DHT22;4203;48.144;14.118;2023-04-03T04:41:26;3.30;99.90
8332;DHT22;4203;48.144;14.118;2023-04-03T04:43:53;3.30;99.90
8332;DHT22;4203;48.144;14.118;2023-04-03T04:46:20;3.20;99.90
8332;DHT22;4203;48.144;14.118;2023-04-03T04:48:48;3.30;99.90
8332;DHT22;4203;48.144;14.118;2023-04-03T04:51:16;3.20;99.90
8332;DHT22;4203;48.144;14.118;2023-04-03T04:53:43;3.20;99.90
8332;DHT22;4203;48.144;14.118;2023-04-03T04:56:11;3.30;99.90
8332;DHT22;4203;48.144;14.118;2023-04-03T04:58:39;3.30;99.90
8332;DHT22;4203;48.144;14.118;2023-04-03T05:01:08;3.30;99.90
8332;DHT22;4203;48.144;14.118;2023-04-03T05:03:36;3.30;99.90
8332;DHT22;4203;48.144;14.118;2023-04-03T05:06:03;3.20;99.90
8332;DHT22;4203;48.144;14.118;2023-04-03T05:08:31;3.20;99.90
8332;DHT22;4203;48.144;14.118;2023-04-03T05:10:58;3.20;99.90
8332;DHT22;4203;48.144;14.118;2023-04-03T05:13:25;3.30;99.90
8332;DHT22;4203;48.144;14.118;2023-04-03T05:15:54;3.30;99.90
8332;DHT22;4203;48.144;14.118;2023-04-03T05:18:21;3.30;99.90
8332;DHT22;4203;48.144;14.118;2023-04-03T05:20:48;3.40;99.90
8332;DHT22;4203;48.144;14.118;2023-04-03T05:23:16;3.30;99.90
8332;DHT22;4203;48.144;14.118;2023-04-03T05:25:43;3.30;99.90
8332;DHT22;4203;48.144;14.118;2023-04-03T05:28:11;3.40;99.90
8332;DHT22;4203;48.144;14.118;2023-04-03T05:30:38;3.40;99.90
8332;DHT22;4203;48.144;14.118;2023-04-03T05:33:06;3.40;99.90
8332;DHT22;4203;48.144;14.118;2023-04-03T05:35:35;3.40;99.90
8332;DHT22;4203;48.144;14.118;2023-04-03T05:38:04;3.40;99.90
8332;DHT22;4203;48.144;14.118;2023-04-03T05:40:32;3.50;99.90
8332;DHT22;4203;48.144;14.118;2023-04-03T05:42:59;3.50;99.90
8332;DHT22;4203;48.144;14.118;2023-04-03T05:45:26;3.50;99.90
8332;DHT22;4203;48.144;14.118;2023-04-03T05:47:53;3.50;99.90
8332;DHT22;4203;48.144;14.118;2023-04-03T05:50:22;3.50;99.90
8332;DHT22;4203;48.144;14.118;2023-04-03T05:52:50;3.60;99.90
8332;DHT22;4203;48.144;14.118;2023-04-03T05:55:17;3.60;99.90
8332;DHT22;4203;48.144;14.118;2023-04-03T05:57:45;3.60;99.90
8332;DHT22;4203;48.144;14.118;2023-04-03T06:00:15;3.60;99.90
8332;DHT22;4203;48.144;14.118;2023-04-03T06:02:43;3.60;99.90
8332;DHT22;4203;48.144;14.118;2023-04-03T06:05:10;3.70;99.90
8332;DHT22;4203;48.144;14.118;2023-04-03T06:07:40;3.70;99.90
8332;DHT22;4203;48.144;14.118;2023-04-03T06:10:10;3.80;99.90
8332;DHT22;4203;48.144;14.118;2023-04-03T06:12:38;3.80;99.90
8332;DHT22;4203;48.144;14.118;2023-04-03T06:15:06;3.80;99.90
8332;DHT22;4203;48.144;14.118;2023-04-03T06:17:35;3.90;99.90
8332;DHT22;4203;48.144;14.118;2023-04-03T06:20:03;3.90;99.90
8332;DHT22;4203;48.144;14.118;2023-04-03T06:22:31;3.90;99.90
8332;DHT22;4203;48.144;14.118;2023-04-03T06:24:59;4.00;99.90
8332;DHT22;4203;48.144;14.118;2023-04-03T06:27:26;4.00;99.90
8332;DHT22;4203;48.144;14.118;2023-04-03T06:29:54;4.10;99.90
8332;DHT22;4203;48.144;14.118;2023-04-03T06:32:21;4.10;99.90
8332;DHT22;4203;48.144;14.118;2023-04-03T06:34:48;4.10;99.90
8332;DHT22;4203;48.144;14.118;2023-04-03T06:37:15;4.10;99.90
8332;DHT22;4203;48.144;14.118;2023-04-03T06:39:43;4.20;99.90
8332;DHT22;4203;48.144;14.118;2023-04-03T06:42:12;4.30;99.90
8332;DHT22;4203;48.144;14.118;2023-04-03T06:44:39;4.30;99.90
8332;DHT22;4203;48.144;14.118;2023-04-03T06:47:08;4.30;99.90
8332;DHT22;4203;48.144;14.118;2023-04-03T06:49:36;4.40;99.90
8332;DHT22;4203;48.144;14.118;2023-04-03T06:52:04;4.40;99.90
8332;DHT22;4203;48.144;14.118;2023-04-03T06:54:31;4.40;99.90
8332;DHT22;4203;48.144;14.118;2023-04-03T06:56:58;4.40;99.90
8332;DHT22;4203;48.144;14.118;2023-04-03T06:59:28;4.50;99.90
8332;DHT22;4203;48.144;14.118;2023-04-03T07:01:55;4.60;99.90
8332;DHT22;4203;48.144;14.118;2023-04-03T07:04:24;4.60;99.90
8332;DHT22;4203;48.144;14.118;2023-04-03T07:06:52;4.70;99.90
8332;DHT22;4203;48.144;14.118;2023-04-03T07:09:19;4.80;99.90
8332;DHT22;4203;48.144;14.118;2023-04-03T07:11:47;4.70;99.90
8332;DHT22;4203;48.144;14.118;2023-04-03T07:14:14;4.70;99.90
8332;DHT22;4203;48.144;14.118;2023-04-03T07:16:42;4.70;99.90
8332;DHT22;4203;48.144;14.118;2023-04-03T07:19:10;4.80;99.90
8332;DHT22;4203;48.144;14.118;2023-04-03T07:21:37;4.80;99.90
8332;DHT22;4203;48.144;14.118;2023-04-03T07:24:05;4.90;99.90
8332;DHT22;4203;48.144;14.118;2023-04-03T07:26:32;4.90;99.90
8332;DHT22;4203;48.144;14.118;2023-04-03T07:28:59;5.00;99.90
8332;DHT22;4203;48.144;14.118;2023-04-03T07:31:26;4.90;99.90
8332;DHT22;4203;48.144;14.118;2023-04-03T07:33:55;4.90;99.90
8332;DHT22;4203;48.144;14.118;2023-04-03T07:36:23;4.90;99.90
8332;DHT22;4203;48.144;14.118;2023-04-03T07:38:50;4.90;99.90
8332;DHT22;4203;48.144;14.118;2023-04-03T07:41:19;4.90;99.90
8332;DHT22;4203;48.144;14.118;2023-04-03T07:43:48;4.90;99.90
8332;DHT22;4203;48.144;14.118;2023-04-03T07:46:16;4.90;99.90
8332;DHT22;4203;48.144;14.118;2023-04-03T07:48:44;5.00;99.90
8332;DHT22;4203;48.144;14.118;2023-04-03T07:51:13;5.00;99.90
8332;DHT22;4203;48.144;14.118;2023-04-03T07:53:41;5.20;99.90
8332;DHT22;4203;48.144;14.118;2023-04-03T07:56:09;5.40;99.90
8332;DHT22;4203;48.144;14.118;2023-04-03T07:58:36;5.50;99.90
8332;DHT22;4203;48.144;14.118;2023-04-03T08:01:04;5.50;99.90
8332;DHT22;4203;48.144;14.118;2023-04-03T08:03:31;5.50;99.90
8332;DHT22;4203;48.144;14.118;2023-04-03T08:06:02;5.50;99.90
8332;DHT22;4203;48.144;14.118;2023-04-03T08:08:31;5.40;99.90
8332;DHT22;4203;48.144;14.118;2023-04-03T08:11:00;5.30;99.90
8332;DHT22;4203;48.144;14.118;2023-04-03T08:13:29;5.10;99.90
8332;DHT22;4203;48.144;14.118;2023-04-03T08:15:56;4.70;99.90
8332;DHT22;4203;48.144;14.118;2023-04-03T08:18:25;4.10;99.90
8332;DHT22;4203;48.144;14.118;2023-04-03T08:20:52;3.60;99.90
8332;DHT22;4203;48.144;14.118;2023-04-03T08:23:19;3.10;99.90
8332;DHT22;4203;48.144;14.118;2023-04-03T08:25:48;2.80;99.90
8332;DHT22;4203;48.144;14.118;2023-04-03T08:28:16;2.50;99.90
8332;DHT22;4203;48.144;14.118;2023-04-03T08:30:43;2.40;99.90
8332;DHT22;4203;48.144;14.118;2023-04-03T08:33:11;2.40;99.90
8332;DHT22;4203;48.144;14.118;2023-04-03T08:35:39;2.40;99.90
8332;DHT22;4203;48.144;14.118;2023-04-03T08:38:07;2.60;99.90
8332;DHT22;4203;48.144;14.118;2023-04-03T08:40:34;2.80;99.90
8332;DHT22;4203;48.144;14.118;2023-04-03T08:43:18;3.00;99.90
8332;DHT22;4203;48.144;14.118;2023-04-03T08:45:53;3.10;99.90
8332;DHT22;4203;48.144;14.118;2023-04-03T08:48:23;3.20;99.90
8332;DHT22;4203;48.144;14.118;2023-04-03T08:50:56;3.40;99.90
8332;DHT22;4203;48.144;14.118;2023-04-03T08:53:28;3.70;99.90
8332;DHT22;4203;48.144;14.118;2023-04-03T08:55:58;4.00;99.90
8332;DHT22;4203;48.144;14.118;2023-04-03T08:58:30;4.20;99.90
8332;DHT22;4203;48.144;14.118;2023-04-03T09:01:02;4.30;99.90
8332;DHT22;4203;48.144;14.118;2023-04-03T09:03:30;4.40;99.90
8332;DHT22;4203;48.144;14.118;2023-04-03T09:06:02;4.60;99.90
8332;DHT22;4203;48.144;14.118;2023-04-03T09:08:33;4.80;99.90
8332;DHT22;4203;48.144;14.118;2023-04-03T09:11:09;4.80;99.90
8332;DHT22;4203;48.144;14.118;2023-04-03T09:13:47;4.80;99.90
8332;DHT22;4203;48.144;14.118;2023-04-03T09:16:25;4.90;99.90
8332;DHT22;4203;48.144;14.118;2023-04-03T09:19:00;5.00;99.90
8332;DHT22;4203;48.144;14.118;2023-04-03T09:21:34;5.10;99.90
8332;DHT22;4203;48.144;14.118;2023-04-03T09:24:03;5.10;99.90
8332;DHT22;4203;48.144;14.118;2023-04-03T09:26:35;5.10;99.90
8332;DHT22;4203;48.144;14.118;2023-04-03T09:29:08;5.20;99.90
8332;DHT22;4203;48.144;14.118;2023-04-03T09:31:40;5.30;99.90
8332;DHT22;4203;48.144;14.118;2023-04-03T09:34:20;5.40;99.90
8332;DHT22;4203;48.144;14.118;2023-04-03T09:36:50;5.50;99.90
8332;DHT22;4203;48.144;14.118;2023-04-03T09:39:19;5.60;99.90
8332;DHT22;4203;48.144;14.118;2023-04-03T09:41:59;5.60;99.90
8332;DHT22;4203;48.144;14.118;2023-04-03T09:44:30;5.80;99.90
8332;DHT22;4203;48.144;14.118;2023-04-03T09:46:58;5.70;99.90
8332;DHT22;4203;48.144;14.118;2023-04-03T09:49:25;5.80;99.90
8332;DHT22;4203;48.144;14.118;2023-04-03T09:51:53;5.90;99.90
8332;DHT22;4203;48.144;14.118;2023-04-03T09:54:35;6.00;99.90
8332;DHT22;4203;48.144;14.118;2023-04-03T09:57:08;6.00;99.90
8332;DHT22;4203;48.144;14.118;2023-04-03T09:59:45;6.20;99.90
8332;DHT22;4203;48.144;14.118;2023-04-03T10:02:40;6.20;99.90
8332;DHT22;4203;48.144;14.118;2023-04-03T10:05:31;6.30;99.90
8332;DHT22;4203;48.144;14.118;2023-04-03T10:08:10;6.50;99.90
8332;DHT22;4203;48.144;14.118;2023-04-03T10:10:38;6.60;99.90
8332;DHT22;4203;48.144;14.118;2023-04-03T10:13:07;6.70;99.90
8332;DHT22;4203;48.144;14.118;2023-04-03T10:15:41;6.90;99.90
8332;DHT22;4203;48.144;14.118;2023-04-03T10:18:28;6.90;99.90
8332;DHT22;4203;48.144;14.118;2023-04-03T10:21:02;7.10;99.90
8332;DHT22;4203;48.144;14.118;2023-04-03T10:23:36;7.40;99.90
8332;DHT22;4203;48.144;14.118;2023-04-03T10:26:14;7.50;99.90
8332;DHT22;4203;48.144;14.118;2023-04-03T10:28:48;7.40;99.90
8332;DHT22;4203;48.144;14.118;2023-04-03T10:31:25;7.40;99.90
8332;DHT22;4203;48.144;14.118;2023-04-03T10:34:01;7.40;99.90
8332;DHT22;4203;48.144;14.118;2023-04-03T10:36:37;7.60;99.90
8332;DHT22;4203;48.144;14.118;2023-04-03T10:39:15;7.70;99.90
8332;DHT22;4203;48.144;14.118;2023-04-03T10:41:51;7.90;99.90
8332;DHT22;4203;48.144;14.118;2023-04-03T10:44:30;8.00;99.90
8332;DHT22;4203;48.144;14.118;2023-04-03T10:47:04;8.10;99.90
8332;DHT22;4203;48.144;14.118;2023-04-03T10:49:41;8.10;99.90
8332;DHT22;4203;48.144;14.118;2023-04-03T10:52:17;8.10;99.90
8332;DHT22;4203;48.144;14.118;2023-04-03T10:54:52;8.20;99.90
8332;DHT22;4203;48.144;14.118;2023-04-03T10:57:24;8.40;99.90
8332;DHT22;4203;48.144;14.118;2023-04-03T10:59:55;8.70;99.90
8332;DHT22;4203;48.144;14.118;2023-04-03T11:02:28;9.00;99.90
8332;DHT22;4203;48.144;14.118;2023-04-03T11:05:01;9.10;99.90
8332;DHT22;4203;48.144;14.118;2023-04-03T11:07:33;8.70;99.90
8332;DHT22;4203;48.144;14.118;2023-04-03T11:10:05;8.40;99.90
8332;DHT22;4203;48.144;14.118;2023-04-03T11:12:38;8.50;99.90
8332;DHT22;4203;48.144;14.118;2023-04-03T11:15:12;8.80;99.90
8332;DHT22;4203;48.144;14.118;2023-04-03T11:17:45;8.70;99.90
8332;DHT22;4203;48.144;14.118;2023-04-03T11:20:18;8.90;99.90
8332;DHT22;4203;48.144;14.118;2023-04-03T11:22:50;8.80;99.90
8332;DHT22;4203;48.144;14.118;2023-04-03T11:25:20;8.60;99.90
8332;DHT22;4203;48.144;14.118;2023-04-03T11:27:54;8.50;99.90
8332;DHT22;4203;48.144;14.118;2023-04-03T11:30:24;8.40;99.90
8332;DHT22;4203;48.144;14.118;2023-04-03T11:33:03;8.30;99.90
8332;DHT22;4203;48.144;14.118;2023-04-03T11:35:33;8.30;99.90
8332;DHT22;4203;48.144;14.118;2023-04-03T11:38:04;8.20;99.90
8332;DHT22;4203;48.144;14.118;2023-04-03T11:40:34;7.90;99.90
8332;DHT22;4203;48.144;14.118;2023-04-03T11:43:07;7.60;99.90
8332;DHT22;4203;48.144;14.118;2023-04-03T11:45:52;7.50;99.90
8332;DHT22;4203;48.144;14.118;2023-04-03T11:51:52;7.40;99.90
8332;DHT22;4203;48.144;14.118;2023-04-03T11:54:47;7.50;99.90
8332;DHT22;4203;48.144;14.118;2023-04-03T12:00:48;7.40;99.90
8332;DHT22;4203;48.144;14.118;2023-04-03T12:10:18;7.60;99.90
8332;DHT22;4203;48.144;14.118;2023-04-03T12:12:59;7.40;99.90
8332;DHT22;4203;48.144;14.118;2023-04-03T12:15:49;7.00;99.90
8332;DHT22;4203;48.144;14.118;2023-04-03T12:18:42;6.70;99.90
8332;DHT22;4203;48.144;14.118;2023-04-03T12:21:11;6.50;99.90
8332;DHT22;4203;48.144;14.118;2023-04-03T12:24:00;6.20;99.90
8332;DHT22;4203;48.144;14.118;2023-04-03T12:26:36;6.10;99.90
8332;DHT22;4203;48.144;14.118;2023-04-03T12:29:15;5.90;99.90
8332;DHT22;4203;48.144;14.118;2023-04-03T12:31:50;5.70;99.90
8332;DHT22;4203;48.144;14.118;2023-04-03T12:34:42;5.60;99.90
8332;DHT22;4203;48.144;14.118;2023-04-03T12:37:23;5.50;99.90
8332;DHT22;4203;48.144;14.118;2023-04-03T12:40:01;5.50;99.90
8332;DHT22;4203;48.144;14.118;2023-04-03T12:42:56;5.60;99.90
8332;DHT22;4203;48.144;14.118;2023-04-03T12:45:40;5.60;99.90
8332;DHT22;4203;48.144;14.118;2023-04-03T12:48:14;5.60;99.90
8332;DHT22;4203;48.144;14.118;2023-04-03T12:50:43;5.60;99.90
8332;DHT22;4203;48.144;14.118;2023-04-03T12:53:15;5.70;99.90
8332;DHT22;4203;48.144;14.118;2023-04-03T12:55:43;5.60;99.90
8332;DHT22;4203;48.144;14.118;2023-04-03T12:58:16;5.60;99.90
8332;DHT22;4203;48.144;14.118;2023-04-03T13:00:44;5.50;99.90
8332;DHT22;4203;48.144;14.118;2023-04-03T13:03:29;5.60;99.90
8332;DHT22;4203;48.144;14.118;2023-04-03T13:06:01;5.80;99.90
8332;DHT22;4203;48.144;14.118;2023-04-03T13:08:31;5.90;99.90
8332;DHT22;4203;48.144;14.118;2023-04-03T13:11:02;6.20;99.90
8332;DHT22;4203;48.144;14.118;2023-04-03T13:13:31;6.30;99.90
8332;DHT22;4203;48.144;14.118;2023-04-03T13:15:59;6.40;99.90
8332;DHT22;4203;48.144;14.118;2023-04-03T13:18:28;6.40;99.90
8332;DHT22;4203;48.144;14.118;2023-04-03T13:21:01;6.60;99.90
8332;DHT22;4203;48.144;14.118;2023-04-03T13:23:30;6.80;99.90
8332;DHT22;4203;48.144;14.118;2023-04-03T13:25:58;7.00;99.90
8332;DHT22;4203;48.144;14.118;2023-04-03T13:28:31;7.20;99.90
8332;DHT22;4203;48.144;14.118;2023-04-03T13:31:04;7.50;99.90
8332;DHT22;4203;48.144;14.118;2023-04-03T13:33:34;7.80;99.90
8332;DHT22;4203;48.144;14.118;2023-04-03T13:36:05;7.80;99.90
8332;DHT22;4203;48.144;14.118;2023-04-03T13:38:34;7.70;99.90
8332;DHT22;4203;48.144;14.118;2023-04-03T13:41:05;7.80;99.90
8332;DHT22;4203;48.144;14.118;2023-04-03T13:43:49;7.70;99.90
8332;DHT22;4203;48.144;14.118;2023-04-03T13:46:25;7.70;99.90
8332;DHT22;4203;48.144;14.118;2023-04-03T13:48:55;7.80;99.90
8332;DHT22;4203;48.144;14.118;2023-04-03T13:51:24;7.80;99.90
8332;DHT22;4203;48.144;14.118;2023-04-03T13:53:54;7.60;99.90
8332;DHT22;4203;48.144;14.118;2023-04-03T13:56:27;7.40;99.90
8332;DHT22;4203;48.144;14.118;2023-04-03T13:59:01;7.40;99.90
8332;DHT22;4203;48.144;14.118;2023-04-03T14:01:40;7.50;99.90
8332;DHT22;4203;48.144;14.118;2023-04-03T14:04:14;7.50;99.90
8332;DHT22;4203;48.144;14.118;2023-04-03T14:06:42;7.40;99.90
8332;DHT22;4203;48.144;14.118;2023-04-03T14:09:09;7.30;99.90
8332;DHT22;4203;48.144;14.118;2023-04-03T14:11:37;7.30;99.90
8332;DHT22;4203;48.144;14.118;2023-04-03T14:14:13;7.50;99.90
8332;DHT22;4203;48.144;14.118;2023-04-03T14:16:43;7.80;99.90
8332;DHT22;4203;48.144;14.118;2023-04-03T14:19:18;8.70;99.90
8332;DHT22;4203;48.144;14.118;2023-04-03T14:21:46;9.30;99.30
8332;DHT22;4203;48.144;14.118;2023-04-03T14:24:13;9.10;99.10
8332;DHT22;4203;48.144;14.118;2023-04-03T14:26:42;8.70;99.00
8332;DHT22;4203;48.144;14.118;2023-04-03T14:29:13;8.50;99.50
8332;DHT22;4203;48.144;14.118;2023-04-03T14:31:41;8.60;99.90
8332;DHT22;4203;48.144;14.118;2023-04-03T14:34:09;8.70;99.90
8332;DHT22;4203;48.144;14.118;2023-04-03T14:36:37;8.60;99.90
8332;DHT22;4203;48.144;14.118;2023-04-03T14:39:06;8.40;98.90
8332;DHT22;4203;48.144;14.118;2023-04-03T14:41:34;8.00;98.10
8332;DHT22;4203;48.144;14.118;2023-04-03T14:44:02;7.70;98.70
8332;DHT22;4203;48.144;14.118;2023-04-03T14:46:33;7.40;98.30
8332;DHT22;4203;48.144;14.118;2023-04-03T14:49:02;7.40;99.90
8332;DHT22;4203;48.144;14.118;2023-04-03T14:51:33;7.20;99.90
8332;DHT22;4203;48.144;14.118;2023-04-03T14:54:00;7.10;99.70
8332;DHT22;4203;48.144;14.118;2023-04-03T14:56:29;7.00;99.90
8332;DHT22;4203;48.144;14.118;2023-04-03T14:58:59;6.80;99.90
8332;DHT22;4203;48.144;14.118;2023-04-03T15:01:27;6.60;99.90
8332;DHT22;4203;48.144;14.118;2023-04-03T15:03:56;6.50;99.90
8332;DHT22;4203;48.144;14.118;2023-04-03T15:06:24;6.40;99.90
8332;DHT22;4203;48.144;14.118;2023-04-03T15:08:51;6.40;99.90
8332;DHT22;4203;48.144;14.118;2023-04-03T15:11:19;6.30;99.90
8332;DHT22;4203;48.144;14.118;2023-04-03T15:13:46;6.30;99.90
8332;DHT22;4203;48.144;14.118;2023-04-03T15:16:16;6.20;99.90
8332;DHT22;4203;48.144;14.118;2023-04-03T15:18:44;6.20;99.90
8332;DHT22;4203;48.144;14.118;2023-04-03T15:21:13;6.10;99.90
8332;DHT22;4203;48.144;14.118;2023-04-03T15:23:40;6.00;99.90
8332;DHT22;4203;48.144;14.118;2023-04-03T15:26:09;5.90;99.60
8332;DHT22;4203;48.144;14.118;2023-04-03T15:28:38;5.90;99.90
8332;DHT22;4203;48.144;14.118;2023-04-03T15:31:06;5.90;99.90
8332;DHT22;4203;48.144;14.118;2023-04-03T15:33:34;5.70;99.90
8332;DHT22;4203;48.144;14.118;2023-04-03T15:36:02;5.60;99.40
8332;DHT22;4203;48.144;14.118;2023-04-03T15:38:31;5.60;99.90
8332;DHT22;4203;48.144;14.118;2023-04-03T15:40:59;5.60;99.90
8332;DHT22;4203;48.144;14.118;2023-04-03T15:43:26;5.60;99.90
8332;DHT22;4203;48.144;14.118;2023-04-03T15:45:56;5.60;99.90
8332;DHT22;4203;48.144;14.118;2023-04-03T15:48:25;5.60;99.90
8332;DHT22;4203;48.144;14.118;2023-04-03T15:50:53;5.70;99.90
8332;DHT22;4203;48.144;14.118;2023-04-03T15:53:20;5.70;99.90
8332;DHT22;4203;48.144;14.118;2023-04-03T15:55:49;5.60;99.90
8332;DHT22;4203;48.144;14.118;2023-04-03T15:58:16;5.60;99.90
8332;DHT22;4203;48.144;14.118;2023-04-03T16:00:43;5.70;99.90
8332;DHT22;4203;48.144;14.118;2023-04-03T16:03:12;5.70;99.90
8332;DHT22;4203;48.144;14.118;2023-04-03T16:05:42;5.70;99.90
8332;DHT22;4203;48.144;14.118;2023-04-03T16:08:09;5.60;99.90
8332;DHT22;4203;48.144;14.118;2023-04-03T16:10:37;5.50;99.90
8332;DHT22;4203;48.144;14.118;2023-04-03T16:13:06;5.40;99.90
8332;DHT22;4203;48.144;14.118;2023-04-03T16:15:34;5.30;99.90
8332;DHT22;4203;48.144;14.118;2023-04-03T16:18:02;5.30;99.90
8332;DHT22;4203;48.144;14.118;2023-04-03T16:20:30;5.20;99.90
8332;DHT22;4203;48.144;14.118;2023-04-03T16:22:59;5.30;99.90
8332;DHT22;4203;48.144;14.118;2023-04-03T16:25:27;5.20;99.90
8332;DHT22;4203;48.144;14.118;2023-04-03T16:27:56;5.20;99.90
8332;DHT22;4203;48.144;14.118;2023-04-03T16:30:25;5.10;99.90
8332;DHT22;4203;48.144;14.118;2023-04-03T16:32:52;5.00;99.90
8332;DHT22;4203;48.144;14.118;2023-04-03T16:35:21;4.80;99.90